sensor_id;sensor_type;location;lat;lon;timestamp;pressure;altitude;pressure_sealevel;temperature
28305;BMP280;15569;42.652;23.040;2024-03-25T00:00:18;91759.50;;;8.50
28305;BMP280;15569;42.652;23.040;2024-03-25T00:02:45;91755.38;;;8.49
28305;BMP280;15569;42.652;23.040;2024-03-25T00:05:11;91749.03;;;8.42
28305;BMP280;15569;42.652;23.040;2024-03-25T00:07:39;91743.16;;;8.30
28305;BMP280;15569;42.652;23.040;2024-03-25T00:10:05;91757.59;;;8.19
28305;BMP280;15569;42.652;23.040;2024-03-25T00:12:36;91734.50;;;8.34
28305;BMP280;15569;42.652;23.040;2024-03-25T00:15:02;91721.47;;;8.13
28305;BMP280;15569;42.652;23.040;2024-03-25T00:17:27;91720.75;;;7.94
28305;BMP280;15569;42.652;23.040;2024-03-25T00:19:53;91728.78;;;7.92
28305;BMP280;15569;42.652;23.040;2024-03-25T00:22:19;91737.84;;;7.99
28305;BMP280;15569;42.652;23.040;2024-03-25T00:24:48;91728.88;;;7.94
28305;BMP280;15569;42.652;23.040;2024-03-25T00:27:14;91732.78;;;7.91
28305;BMP280;15569;42.652;23.040;2024-03-25T00:29:40;91743.81;;;7.80
28305;BMP280;15569;42.652;23.040;2024-03-25T00:32:06;91733.19;;;7.53
28305;BMP280;15569;42.652;23.040;2024-03-25T00:34:32;91723.78;;;7.69
28305;BMP280;15569;42.652;23.040;2024-03-25T00:37:00;91729.53;;;7.62
28305;BMP280;15569;42.652;23.040;2024-03-25T00:39:26;91743.16;;;7.48
28305;BMP280;15569;42.652;23.040;2024-03-25T00:41:52;91736.34;;;7.47
28305;BMP280;15569;42.652;23.040;2024-03-25T00:44:17;91740.66;;;7.36
28305;BMP280;15569;42.652;23.040;2024-03-25T00:46:43;91719.97;;;7.27
28305;BMP280;15569;42.652;23.040;2024-03-25T00:49:10;91730.06;;;7.43
28305;BMP280;15569;42.652;23.040;2024-03-25T00:51:35;91725.47;;;7.45
28305;BMP280;15569;42.652;23.040;2024-03-25T00:54:01;91714.66;;;7.45
28305;BMP280;15569;42.652;23.040;2024-03-25T00:56:27;91719.78;;;7.55
28305;BMP280;15569;42.652;23.040;2024-03-25T00:58:52;91704.84;;;7.54
28305;BMP280;15569;42.652;23.040;2024-03-25T01:01:18;91700.47;;;7.62
28305;BMP280;15569;42.652;23.040;2024-03-25T01:03:45;91684.34;;;7.64
28305;BMP280;15569;42.652;23.040;2024-03-25T01:06:16;91680.25;;;7.63
28305;BMP280;15569;42.652;23.040;2024-03-25T01:08:41;91683.66;;;7.64
28305;BMP280;15569;42.652;23.040;2024-03-25T01:11:07;91692.03;;;7.70
28305;BMP280;15569;42.652;23.040;2024-03-25T01:13:32;91678.09;;;7.60
28305;BMP280;15569;42.652;23.040;2024-03-25T01:15:57;91686.91;;;7.60
28305;BMP280;15569;42.652;23.040;2024-03-25T01:18:23;91695.97;;;7.51
28305;BMP280;15569;42.652;23.040;2024-03-25T01:20:48;91696.22;;;7.41
28305;BMP280;15569;42.652;23.040;2024-03-25T01:23:15;91685.63;;;7.30
28305;BMP280;15569;42.652;23.040;2024-03-25T01:25:40;91694.97;;;7.27
28305;BMP280;15569;42.652;23.040;2024-03-25T01:28:05;91685.00;;;7.31
28305;BMP280;15569;42.652;23.040;2024-03-25T01:30:31;91687.09;;;7.33
28305;BMP280;15569;42.652;23.040;2024-03-25T01:33:06;91677.94;;;7.09
28305;BMP280;15569;42.652;23.040;2024-03-25T01:35:31;91684.03;;;7.40
28305;BMP280;15569;42.652;23.040;2024-03-25T01:37:57;91689.53;;;7.43
28305;BMP280;15569;42.652;23.040;2024-03-25T01:40:23;91688.81;;;7.42
28305;BMP280;15569;42.652;23.040;2024-03-25T01:42:58;91694.50;;;7.32
28305;BMP280;15569;42.652;23.040;2024-03-25T01:45:29;91704.97;;;7.24
28305;BMP280;15569;42.652;23.040;2024-03-25T01:48:07;91699.72;;;7.28
28305;BMP280;15569;42.652;23.040;2024-03-25T01:50:37;91685.44;;;7.10
28305;BMP280;15569;42.652;23.040;2024-03-25T01:53:03;91705.22;;;7.30
28305;BMP280;15569;42.652;23.040;2024-03-25T01:55:31;91708.47;;;7.11
28305;BMP280;15569;42.652;23.040;2024-03-25T01:57:58;91705.75;;;7.11
28305;BMP280;15569;42.652;23.040;2024-03-25T02:00:24;91687.88;;;6.89
28305;BMP280;15569;42.652;23.040;2024-03-25T02:02:52;91720.66;;;7.28
28305;BMP280;15569;42.652;23.040;2024-03-25T02:05:18;91717.69;;;7.37
28305;BMP280;15569;42.652;23.040;2024-03-25T02:07:44;91709.50;;;7.35
28305;BMP280;15569;42.652;23.040;2024-03-25T02:10:10;91710.34;;;7.40
28305;BMP280;15569;42.652;23.040;2024-03-25T02:12:43;91706.63;;;7.31
28305;BMP280;15569;42.652;23.040;2024-03-25T02:15:09;91713.03;;;7.40
28305;BMP280;15569;42.652;23.040;2024-03-25T02:17:35;91717.59;;;7.51
28305;BMP280;15569;42.652;23.040;2024-03-25T02:20:01;91712.63;;;7.61
28305;BMP280;15569;42.652;23.040;2024-03-25T02:22:28;91714.34;;;7.70
28305;BMP280;15569;42.652;23.040;2024-03-25T02:24:57;91712.47;;;7.57
28305;BMP280;15569;42.652;23.040;2024-03-25T02:27:26;91709.47;;;7.51
28305;BMP280;15569;42.652;23.040;2024-03-25T02:29:54;91704.94;;;7.56
28305;BMP280;15569;42.652;23.040;2024-03-25T02:32:19;91710.09;;;7.50
28305;BMP280;15569;42.652;23.040;2024-03-25T02:34:52;91704.78;;;7.52
28305;BMP280;15569;42.652;23.040;2024-03-25T02:37:18;91711.66;;;7.55
28305;BMP280;15569;42.652;23.040;2024-03-25T02:39:44;91712.47;;;7.41
28305;BMP280;15569;42.652;23.040;2024-03-25T02:42:09;91718.22;;;7.18
28305;BMP280;15569;42.652;23.040;2024-03-25T02:44:35;91737.25;;;7.36
28305;BMP280;15569;42.652;23.040;2024-03-25T02:47:01;91732.16;;;7.28
28305;BMP280;15569;42.652;23.040;2024-03-25T02:49:30;91733.72;;;7.18
28305;BMP280;15569;42.652;23.040;2024-03-25T02:51:55;91738.13;;;7.25
28305;BMP280;15569;42.652;23.040;2024-03-25T02:54:21;91736.19;;;7.27
28305;BMP280;15569;42.652;23.040;2024-03-25T02:56:47;91743.25;;;7.34
28305;BMP280;15569;42.652;23.040;2024-03-25T02:59:12;91750.84;;;7.38
28305;BMP280;15569;42.652;23.040;2024-03-25T03:01:38;91749.97;;;7.33
28305;BMP280;15569;42.652;23.040;2024-03-25T03:04:03;91744.53;;;7.49
28305;BMP280;15569;42.652;23.040;2024-03-25T03:06:28;91747.25;;;7.49
28305;BMP280;15569;42.652;23.040;2024-03-25T03:08:54;91748.19;;;7.40
28305;BMP280;15569;42.652;23.040;2024-03-25T03:11:19;91741.25;;;7.35
28305;BMP280;15569;42.652;23.040;2024-03-25T03:13:45;91747.09;;;7.45
28305;BMP280;15569;42.652;23.040;2024-03-25T03:16:11;91749.84;;;7.31
28305;BMP280;15569;42.652;23.040;2024-03-25T03:18:37;91781.53;;;7.45
28305;BMP280;15569;42.652;23.040;2024-03-25T03:21:02;91768.44;;;7.55
28305;BMP280;15569;42.652;23.040;2024-03-25T03:23:28;91770.97;;;7.51
28305;BMP280;15569;42.652;23.040;2024-03-25T03:25:53;91766.97;;;7.36
28305;BMP280;15569;42.652;23.040;2024-03-25T03:28:18;91749.84;;;7.31
28305;BMP280;15569;42.652;23.040;2024-03-25T03:30:44;91759.38;;;7.32
28305;BMP280;15569;42.652;23.040;2024-03-25T03:33:09;91775.50;;;7.15
28305;BMP280;15569;42.652;23.040;2024-03-25T03:35:35;91785.47;;;6.97
28305;BMP280;15569;42.652;23.040;2024-03-25T03:38:01;91781.06;;;7.34
28305;BMP280;15569;42.652;23.040;2024-03-25T03:40:28;91780.75;;;7.58
28305;BMP280;15569;42.652;23.040;2024-03-25T03:42:54;91789.38;;;7.54
28305;BMP280;15569;42.652;23.040;2024-03-25T03:45:19;91756.13;;;7.67
28305;BMP280;15569;42.652;23.040;2024-03-25T03:47:45;91783.72;;;7.97
28305;BMP280;15569;42.652;23.040;2024-03-25T03:50:10;91789.56;;;8.23
28305;BMP280;15569;42.652;23.040;2024-03-25T03:52:36;91796.94;;;7.89
28305;BMP280;15569;42.652;23.040;2024-03-25T03:55:01;91809.81;;;7.73
28305;BMP280;15569;42.652;23.040;2024-03-25T03:57:27;91825.09;;;7.21
28305;BMP280;15569;42.652;23.040;2024-03-25T03:59:52;91822.94;;;7.04
28305;BMP280;15569;42.652;23.040;2024-03-25T04:02:18;91822.44;;;7.37
28305;BMP280;15569;42.652;23.040;2024-03-25T04:04:43;91812.41;;;7.71
28305;BMP280;15569;42.652;23.040;2024-03-25T04:07:09;91801.69;;;8.06
28305;BMP280;15569;42.652;23.040;2024-03-25T04:09:34;91805.88;;;8.09
28305;BMP280;15569;42.652;23.040;2024-03-25T04:12:00;91815.25;;;8.39
28305;BMP280;15569;42.652;23.040;2024-03-25T04:14:26;91821.44;;;8.42
28305;BMP280;15569;42.652;23.040;2024-03-25T04:16:51;91830.19;;;8.40
28305;BMP280;15569;42.652;23.040;2024-03-25T04:19:24;91828.47;;;8.31
28305;BMP280;15569;42.652;23.040;2024-03-25T04:21:50;91815.91;;;8.55
28305;BMP280;15569;42.652;23.040;2024-03-25T04:24:15;91818.66;;;8.73
28305;BMP280;15569;42.652;23.040;2024-03-25T04:26:40;91832.28;;;8.59
28305;BMP280;15569;42.652;23.040;2024-03-25T04:29:06;91846.84;;;8.01
28305;BMP280;15569;42.652;23.040;2024-03-25T04:31:31;91855.84;;;7.75
28305;BMP280;15569;42.652;23.040;2024-03-25T04:33:56;91858.50;;;7.73
28305;BMP280;15569;42.652;23.040;2024-03-25T04:36:22;91859.06;;;7.87
28305;BMP280;15569;42.652;23.040;2024-03-25T04:38:48;91862.31;;;7.83
28305;BMP280;15569;42.652;23.040;2024-03-25T04:41:13;91851.28;;;7.95
28305;BMP280;15569;42.652;23.040;2024-03-25T04:43:38;91855.50;;;8.14
28305;BMP280;15569;42.652;23.040;2024-03-25T04:46:04;91858.75;;;8.28
28305;BMP280;15569;42.652;23.040;2024-03-25T04:48:30;91861.03;;;8.33
28305;BMP280;15569;42.652;23.040;2024-03-25T04:50:55;91861.50;;;8.61
28305;BMP280;15569;42.652;23.040;2024-03-25T04:53:20;91853.56;;;8.82
28305;BMP280;15569;42.652;23.040;2024-03-25T04:55:46;91846.97;;;8.88
28305;BMP280;15569;42.652;23.040;2024-03-25T04:58:11;91840.41;;;8.93
28305;BMP280;15569;42.652;23.040;2024-03-25T05:00:37;91858.84;;;9.14
28305;BMP280;15569;42.652;23.040;2024-03-25T05:03:02;91846.44;;;9.09
28305;BMP280;15569;42.652;23.040;2024-03-25T05:05:27;91839.44;;;8.68
28305;BMP280;15569;42.652;23.040;2024-03-25T05:07:55;91852.84;;;8.64
28305;BMP280;15569;42.652;23.040;2024-03-25T05:10:21;91863.91;;;8.37
28305;BMP280;15569;42.652;23.040;2024-03-25T05:12:49;91858.06;;;8.27
28305;BMP280;15569;42.652;23.040;2024-03-25T05:15:15;91869.28;;;8.20
28305;BMP280;15569;42.652;23.040;2024-03-25T05:17:41;91874.53;;;7.84
28305;BMP280;15569;42.652;23.040;2024-03-25T05:20:06;91866.31;;;7.67
28305;BMP280;15569;42.652;23.040;2024-03-25T05:22:32;91873.13;;;7.83
28305;BMP280;15569;42.652;23.040;2024-03-25T05:24:57;91894.06;;;7.83
28305;BMP280;15569;42.652;23.040;2024-03-25T05:27:22;91877.22;;;7.84
28305;BMP280;15569;42.652;23.040;2024-03-25T05:29:49;91892.69;;;8.13
28305;BMP280;15569;42.652;23.040;2024-03-25T05:32:14;91896.75;;;8.45
28305;BMP280;15569;42.652;23.040;2024-03-25T05:34:41;91910.59;;;8.53
28305;BMP280;15569;42.652;23.040;2024-03-25T05:37:07;91905.47;;;8.44
28305;BMP280;15569;42.652;23.040;2024-03-25T05:39:32;91917.50;;;8.90
28305;BMP280;15569;42.652;23.040;2024-03-25T05:41:57;91916.22;;;9.08
28305;BMP280;15569;42.652;23.040;2024-03-25T05:44:23;91910.72;;;9.24
28305;BMP280;15569;42.652;23.040;2024-03-25T05:46:48;91929.94;;;9.30
28305;BMP280;15569;42.652;23.040;2024-03-25T05:49:14;91928.50;;;8.94
28305;BMP280;15569;42.652;23.040;2024-03-25T05:51:39;91935.38;;;8.79
28305;BMP280;15569;42.652;23.040;2024-03-25T05:54:05;91929.25;;;8.78
28305;BMP280;15569;42.652;23.040;2024-03-25T05:56:30;91922.75;;;9.19
28305;BMP280;15569;42.652;23.040;2024-03-25T05:58:58;91937.19;;;9.43
28305;BMP280;15569;42.652;23.040;2024-03-25T06:01:23;91934.78;;;8.98
28305;BMP280;15569;42.652;23.040;2024-03-25T06:03:49;91945.56;;;9.14
28305;BMP280;15569;42.652;23.040;2024-03-25T06:06:14;91952.16;;;9.44
28305;BMP280;15569;42.652;23.040;2024-03-25T06:08:39;91939.69;;;9.37
28305;BMP280;15569;42.652;23.040;2024-03-25T06:11:05;91946.25;;;8.63
28305;BMP280;15569;42.652;23.040;2024-03-25T06:13:36;91961.25;;;8.66
28305;BMP280;15569;42.652;23.040;2024-03-25T06:16:02;91951.03;;;8.98
28305;BMP280;15569;42.652;23.040;2024-03-25T06:18:27;91957.19;;;9.34
28305;BMP280;15569;42.652;23.040;2024-03-25T06:20:53;91962.59;;;9.34
28305;BMP280;15569;42.652;23.040;2024-03-25T06:23:26;91964.97;;;9.41
28305;BMP280;15569;42.652;23.040;2024-03-25T06:25:53;91968.44;;;9.26
28305;BMP280;15569;42.652;23.040;2024-03-25T06:28:19;91957.28;;;9.36
28305;BMP280;15569;42.652;23.040;2024-03-25T06:30:45;91967.97;;;9.49
28305;BMP280;15569;42.652;23.040;2024-03-25T06:33:30;91972.78;;;9.51
28305;BMP280;15569;42.652;23.040;2024-03-25T06:36:13;91975.84;;;9.79
28305;BMP280;15569;42.652;23.040;2024-03-25T06:38:39;91963.31;;;9.52
28305;BMP280;15569;42.652;23.040;2024-03-25T06:41:04;91971.94;;;9.46
28305;BMP280;15569;42.652;23.040;2024-03-25T06:43:30;91975.13;;;9.08
28305;BMP280;15569;42.652;23.040;2024-03-25T06:45:55;91970.44;;;9.61
28305;BMP280;15569;42.652;23.040;2024-03-25T06:48:20;91982.63;;;9.78
28305;BMP280;15569;42.652;23.040;2024-03-25T06:50:53;91980.84;;;9.49
28305;BMP280;15569;42.652;23.040;2024-03-25T06:53:18;91987.13;;;9.53
28305;BMP280;15569;42.652;23.040;2024-03-25T06:55:59;91989.91;;;9.38
28305;BMP280;15569;42.652;23.040;2024-03-25T06:58:26;92001.22;;;9.32
28305;BMP280;15569;42.652;23.040;2024-03-25T07:00:53;92000.63;;;9.69
28305;BMP280;15569;42.652;23.040;2024-03-25T07:03:21;92008.31;;;9.57
28305;BMP280;15569;42.652;23.040;2024-03-25T07:05:47;92012.72;;;9.66
28305;BMP280;15569;42.652;23.040;2024-03-25T07:08:14;92006.34;;;9.60
28305;BMP280;15569;42.652;23.040;2024-03-25T07:10:42;92012.09;;;9.85
28305;BMP280;15569;42.652;23.040;2024-03-25T07:13:08;91994.19;;;9.78
28305;BMP280;15569;42.652;23.040;2024-03-25T07:15:33;92014.06;;;9.32
28305;BMP280;15569;42.652;23.040;2024-03-25T07:17:59;92010.75;;;9.33
28305;BMP280;15569;42.652;23.040;2024-03-25T07:20:25;92010.78;;;9.18
28305;BMP280;15569;42.652;23.040;2024-03-25T07:22:52;92020.16;;;9.48
28305;BMP280;15569;42.652;23.040;2024-03-25T07:25:17;92027.38;;;9.59
28305;BMP280;15569;42.652;23.040;2024-03-25T07:27:43;92037.16;;;9.84
28305;BMP280;15569;42.652;23.040;2024-03-25T07:30:08;92031.34;;;8.58
28305;BMP280;15569;42.652;23.040;2024-03-25T07:32:35;92032.38;;;8.51
28305;BMP280;15569;42.652;23.040;2024-03-25T07:35:01;92034.22;;;9.27
28305;BMP280;15569;42.652;23.040;2024-03-25T07:37:26;92043.31;;;9.51
28305;BMP280;15569;42.652;23.040;2024-03-25T07:39:52;92043.38;;;9.53
28305;BMP280;15569;42.652;23.040;2024-03-25T07:42:17;92040.16;;;9.74
28305;BMP280;15569;42.652;23.040;2024-03-25T07:44:43;92027.19;;;10.08
28305;BMP280;15569;42.652;23.040;2024-03-25T07:47:09;92030.59;;;10.46
28305;BMP280;15569;42.652;23.040;2024-03-25T07:49:34;92034.72;;;10.66
28305;BMP280;15569;42.652;23.040;2024-03-25T07:52:00;92037.84;;;10.78
28305;BMP280;15569;42.652;23.040;2024-03-25T07:54:26;92050.56;;;9.29
28305;BMP280;15569;42.652;23.040;2024-03-25T07:56:52;92055.91;;;9.27
28305;BMP280;15569;42.652;23.040;2024-03-25T07:59:18;92065.09;;;9.20
28305;BMP280;15569;42.652;23.040;2024-03-25T08:01:44;92054.59;;;8.95
28305;BMP280;15569;42.652;23.040;2024-03-25T08:04:09;92050.22;;;8.41
28305;BMP280;15569;42.652;23.040;2024-03-25T08:06:34;92054.59;;;8.63
28305;BMP280;15569;42.652;23.040;2024-03-25T08:09:00;92051.50;;;8.87
28305;BMP280;15569;42.652;23.040;2024-03-25T08:11:25;92059.56;;;8.53
28305;BMP280;15569;42.652;23.040;2024-03-25T08:13:51;92061.84;;;7.98
28305;BMP280;15569;42.652;23.040;2024-03-25T08:16:17;92070.16;;;7.60
28305;BMP280;15569;42.652;23.040;2024-03-25T08:18:42;92062.50;;;8.28
28305;BMP280;15569;42.652;23.040;2024-03-25T08:21:07;92076.34;;;8.65
28305;BMP280;15569;42.652;23.040;2024-03-25T08:23:33;92073.91;;;8.56
28305;BMP280;15569;42.652;23.040;2024-03-25T08:25:58;92071.00;;;8.67
28305;BMP280;15569;42.652;23.040;2024-03-25T08:28:25;92069.88;;;8.88
28305;BMP280;15569;42.652;23.040;2024-03-25T08:30:51;92067.69;;;8.69
28305;BMP280;15569;42.652;23.040;2024-03-25T08:33:16;92094.63;;;8.20
28305;BMP280;15569;42.652;23.040;2024-03-25T08:35:41;92080.03;;;7.82
28305;BMP280;15569;42.652;23.040;2024-03-25T08:38:07;92097.00;;;7.69
28305;BMP280;15569;42.652;23.040;2024-03-25T08:40:33;92101.69;;;7.69
28305;BMP280;15569;42.652;23.040;2024-03-25T08:42:58;92088.63;;;7.79
28305;BMP280;15569;42.652;23.040;2024-03-25T08:45:24;92088.94;;;8.30
28305;BMP280;15569;42.652;23.040;2024-03-25T08:47:50;92071.41;;;8.31
28305;BMP280;15569;42.652;23.040;2024-03-25T08:50:15;92094.13;;;8.39
28305;BMP280;15569;42.652;23.040;2024-03-25T08:52:40;92098.53;;;8.46
28305;BMP280;15569;42.652;23.040;2024-03-25T08:55:06;92114.59;;;8.13
28305;BMP280;15569;42.652;23.040;2024-03-25T08:57:32;92104.22;;;8.83
28305;BMP280;15569;42.652;23.040;2024-03-25T08:59:57;92103.84;;;8.60
28305;BMP280;15569;42.652;23.040;2024-03-25T09:02:22;92097.50;;;9.00
28305;BMP280;15569;42.652;23.040;2024-03-25T09:04:48;92104.31;;;8.70
28305;BMP280;15569;42.652;23.040;2024-03-25T09:07:16;92095.09;;;9.57
28305;BMP280;15569;42.652;23.040;2024-03-25T09:09:41;92109.00;;;8.69
28305;BMP280;15569;42.652;23.040;2024-03-25T09:12:25;92119.22;;;7.81
28305;BMP280;15569;42.652;23.040;2024-03-25T09:14:51;92098.72;;;7.92
28305;BMP280;15569;42.652;23.040;2024-03-25T09:17:19;92102.78;;;8.51
28305;BMP280;15569;42.652;23.040;2024-03-25T09:19:44;92118.34;;;8.35
28305;BMP280;15569;42.652;23.040;2024-03-25T09:22:10;92111.38;;;8.61
28305;BMP280;15569;42.652;23.040;2024-03-25T09:24:35;92117.31;;;8.13
28305;BMP280;15569;42.652;23.040;2024-03-25T09:27:01;92123.19;;;8.23
28305;BMP280;15569;42.652;23.040;2024-03-25T09:29:26;92122.50;;;7.93
28305;BMP280;15569;42.652;23.040;2024-03-25T09:31:52;92124.34;;;7.62
28305;BMP280;15569;42.652;23.040;2024-03-25T09:34:17;92127.06;;;7.62
28305;BMP280;15569;42.652;23.040;2024-03-25T09:36:43;92124.53;;;7.66
28305;BMP280;15569;42.652;23.040;2024-03-25T09:39:08;92124.03;;;8.41
28305;BMP280;15569;42.652;23.040;2024-03-25T09:41:35;92126.50;;;8.22
28305;BMP280;15569;42.652;23.040;2024-03-25T09:44:03;92116.38;;;8.22
28305;BMP280;15569;42.652;23.040;2024-03-25T09:46:30;92133.47;;;8.11
28305;BMP280;15569;42.652;23.040;2024-03-25T09:48:56;92117.34;;;8.29
28305;BMP280;15569;42.652;23.040;2024-03-25T09:51:22;92112.50;;;8.56
28305;BMP280;15569;42.652;23.040;2024-03-25T09:53:47;92119.06;;;8.98
28305;BMP280;15569;42.652;23.040;2024-03-25T09:56:13;92097.03;;;9.06
28305;BMP280;15569;42.652;23.040;2024-03-25T09:58:39;92109.31;;;9.40
28305;BMP280;15569;42.652;23.040;2024-03-25T10:01:05;92113.97;;;10.06
28305;BMP280;15569;42.652;23.040;2024-03-25T10:03:31;92110.09;;;9.76
28305;BMP280;15569;42.652;23.040;2024-03-25T10:05:56;92110.28;;;9.64
28305;BMP280;15569;42.652;23.040;2024-03-25T10:08:22;92104.50;;;9.72
28305;BMP280;15569;42.652;23.040;2024-03-25T10:10:48;92109.78;;;9.85
28305;BMP280;15569;42.652;23.040;2024-03-25T10:13:15;92100.94;;;10.38
28305;BMP280;15569;42.652;23.040;2024-03-25T10:15:41;92155.72;;;10.14
28305;BMP280;15569;42.652;23.040;2024-03-25T10:18:06;92134.50;;;9.42
28305;BMP280;15569;42.652;23.040;2024-03-25T10:20:33;92127.28;;;9.16
28305;BMP280;15569;42.652;23.040;2024-03-25T10:22:59;92130.88;;;9.05
28305;BMP280;15569;42.652;23.040;2024-03-25T10:25:29;92144.97;;;8.86
28305;BMP280;15569;42.652;23.040;2024-03-25T10:27:56;92129.38;;;9.02
28305;BMP280;15569;42.652;23.040;2024-03-25T10:30:21;92143.03;;;8.88
28305;BMP280;15569;42.652;23.040;2024-03-25T10:33:00;92147.66;;;8.25
28305;BMP280;15569;42.652;23.040;2024-03-25T10:35:27;92147.91;;;8.31
28305;BMP280;15569;42.652;23.040;2024-03-25T10:37:58;92156.91;;;8.06
28305;BMP280;15569;42.652;23.040;2024-03-25T10:40:28;92156.25;;;7.79
28305;BMP280;15569;42.652;23.040;2024-03-25T10:43:01;92154.38;;;7.68
28305;BMP280;15569;42.652;23.040;2024-03-25T10:45:31;92163.00;;;7.78
28305;BMP280;15569;42.652;23.040;2024-03-25T10:47:57;92147.25;;;7.74
28305;BMP280;15569;42.652;23.040;2024-03-25T10:50:28;92149.69;;;8.40
28305;BMP280;15569;42.652;23.040;2024-03-25T10:52:54;92147.50;;;8.97
28305;BMP280;15569;42.652;23.040;2024-03-25T10:55:20;92151.50;;;8.80
28305;BMP280;15569;42.652;23.040;2024-03-25T10:57:48;92143.28;;;8.78
28305;BMP280;15569;42.652;23.040;2024-03-25T11:00:14;92145.31;;;8.94
28305;BMP280;15569;42.652;23.040;2024-03-25T11:02:42;92157.16;;;8.87
28305;BMP280;15569;42.652;23.040;2024-03-25T11:05:08;92150.75;;;8.49
28305;BMP280;15569;42.652;23.040;2024-03-25T11:07:35;92143.38;;;8.96
28305;BMP280;15569;42.652;23.040;2024-03-25T11:10:06;92147.84;;;8.29
28305;BMP280;15569;42.652;23.040;2024-03-25T11:12:35;92158.00;;;8.15
28305;BMP280;15569;42.652;23.040;2024-03-25T11:15:03;92158.53;;;8.27
28305;BMP280;15569;42.652;23.040;2024-03-25T11:17:29;92149.44;;;8.05
28305;BMP280;15569;42.652;23.040;2024-03-25T11:20:06;92152.94;;;7.94
28305;BMP280;15569;42.652;23.040;2024-03-25T11:22:32;92158.28;;;7.65
28305;BMP280;15569;42.652;23.040;2024-03-25T11:25:07;92160.72;;;7.72
28305;BMP280;15569;42.652;23.040;2024-03-25T11:27:36;92154.19;;;7.64
28305;BMP280;15569;42.652;23.040;2024-03-25T11:30:03;92144.84;;;7.80
28305;BMP280;15569;42.652;23.040;2024-03-25T11:33:01;92146.72;;;8.05
28305;BMP280;15569;42.652;23.040;2024-03-25T11:35:27;92145.94;;;8.47
28305;BMP280;15569;42.652;23.040;2024-03-25T11:37:52;92148.25;;;8.53
28305;BMP280;15569;42.652;23.040;2024-03-25T11:40:18;92142.59;;;9.58
28305;BMP280;15569;42.652;23.040;2024-03-25T11:42:45;92134.28;;;10.58
28305;BMP280;15569;42.652;23.040;2024-03-25T11:45:18;92142.88;;;10.70
28305;BMP280;15569;42.652;23.040;2024-03-25T11:47:45;92142.03;;;11.22
28305;BMP280;15569;42.652;23.040;2024-03-25T11:50:13;92154.41;;;11.47
28305;BMP280;15569;42.652;23.040;2024-03-25T11:52:39;92138.72;;;11.45
28305;BMP280;15569;42.652;23.040;2024-03-25T11:55:04;92160.03;;;12.14
28305;BMP280;15569;42.652;23.040;2024-03-25T11:57:30;92148.31;;;12.09
28305;BMP280;15569;42.652;23.040;2024-03-25T11:59:57;92151.66;;;12.08
28305;BMP280;15569;42.652;23.040;2024-03-25T12:02:23;92154.47;;;11.90
28305;BMP280;15569;42.652;23.040;2024-03-25T12:04:49;92152.16;;;11.80
28305;BMP280;15569;42.652;23.040;2024-03-25T12:07:14;92150.88;;;11.42
28305;BMP280;15569;42.652;23.040;2024-03-25T12:09:40;92149.94;;;10.77
28305;BMP280;15569;42.652;23.040;2024-03-25T12:12:25;92147.59;;;11.65
28305;BMP280;15569;42.652;23.040;2024-03-25T12:14:51;92152.22;;;11.41
28305;BMP280;15569;42.652;23.040;2024-03-25T12:17:18;92149.44;;;11.61
28305;BMP280;15569;42.652;23.040;2024-03-25T12:19:44;92168.38;;;11.18
28305;BMP280;15569;42.652;23.040;2024-03-25T12:22:10;92154.00;;;10.76
28305;BMP280;15569;42.652;23.040;2024-03-25T12:24:35;92156.66;;;11.13
28305;BMP280;15569;42.652;23.040;2024-03-25T12:27:01;92159.84;;;10.88
28305;BMP280;15569;42.652;23.040;2024-03-25T12:29:27;92142.78;;;10.85
28305;BMP280;15569;42.652;23.040;2024-03-25T12:31:58;92155.00;;;9.96
28305;BMP280;15569;42.652;23.040;2024-03-25T12:34:26;92174.50;;;9.58
28305;BMP280;15569;42.652;23.040;2024-03-25T12:37:00;92154.78;;;10.98
28305;BMP280;15569;42.652;23.040;2024-03-25T12:39:26;92138.13;;;11.27
28305;BMP280;15569;42.652;23.040;2024-03-25T12:41:51;92169.50;;;10.91
28305;BMP280;15569;42.652;23.040;2024-03-25T12:44:16;92146.25;;;10.88
28305;BMP280;15569;42.652;23.040;2024-03-25T12:46:42;92150.28;;;10.87
28305;BMP280;15569;42.652;23.040;2024-03-25T12:49:07;92164.72;;;10.54
28305;BMP280;15569;42.652;23.040;2024-03-25T12:51:33;92140.34;;;10.03
28305;BMP280;15569;42.652;23.040;2024-03-25T12:53:58;92158.00;;;9.69
28305;BMP280;15569;42.652;23.040;2024-03-25T12:56:24;92141.25;;;9.75
28305;BMP280;15569;42.652;23.040;2024-03-25T12:58:50;92156.72;;;9.54
28305;BMP280;15569;42.652;23.040;2024-03-25T13:01:15;92165.94;;;9.01
28305;BMP280;15569;42.652;23.040;2024-03-25T13:03:41;92175.13;;;8.49
28305;BMP280;15569;42.652;23.040;2024-03-25T13:06:07;92154.28;;;8.98
28305;BMP280;15569;42.652;23.040;2024-03-25T13:08:33;92198.97;;;10.26
28305;BMP280;15569;42.652;23.040;2024-03-25T13:10:58;92163.84;;;11.04
28305;BMP280;15569;42.652;23.040;2024-03-25T13:13:24;92162.28;;;12.00
28305;BMP280;15569;42.652;23.040;2024-03-25T13:15:49;92148.28;;;11.88
28305;BMP280;15569;42.652;23.040;2024-03-25T13:18:15;92156.72;;;12.17
28305;BMP280;15569;42.652;23.040;2024-03-25T13:20:40;92151.78;;;12.81
28305;BMP280;15569;42.652;23.040;2024-03-25T13:23:05;92151.94;;;13.10
28305;BMP280;15569;42.652;23.040;2024-03-25T13:25:31;92150.38;;;12.80
28305;BMP280;15569;42.652;23.040;2024-03-25T13:27:56;92145.75;;;14.48
28305;BMP280;15569;42.652;23.040;2024-03-25T13:30:21;92142.44;;;13.92
28305;BMP280;15569;42.652;23.040;2024-03-25T13:32:50;92145.69;;;14.14
28305;BMP280;15569;42.652;23.040;2024-03-25T13:35:15;92140.28;;;14.48
28305;BMP280;15569;42.652;23.040;2024-03-25T13:37:41;92150.19;;;15.33
28305;BMP280;15569;42.652;23.040;2024-03-25T13:40:07;92176.91;;;13.50
28305;BMP280;15569;42.652;23.040;2024-03-25T13:42:34;92173.41;;;14.62
28305;BMP280;15569;42.652;23.040;2024-03-25T13:44:59;92176.09;;;14.60
28305;BMP280;15569;42.652;23.040;2024-03-25T13:47:25;92180.31;;;15.70
28305;BMP280;15569;42.652;23.040;2024-03-25T13:50:02;92173.22;;;15.19
28305;BMP280;15569;42.652;23.040;2024-03-25T13:52:29;92169.44;;;14.37
28305;BMP280;15569;42.652;23.040;2024-03-25T13:54:56;92192.38;;;15.19
28305;BMP280;15569;42.652;23.040;2024-03-25T13:57:21;92198.34;;;13.62
28305;BMP280;15569;42.652;23.040;2024-03-25T13:59:47;92196.16;;;13.84
28305;BMP280;15569;42.652;23.040;2024-03-25T14:02:13;92205.53;;;14.32